LHBC 181445Z 05003KT CAVOK 07/M03 Q1022        

LHBP 181530Z VRB02KT CAVOK 06/M03 Q1021 NOSIG        

LHDC 181515Z 09003KT CAVOK 05/M04 Q1021 NOSIG        

LHKE 181515Z 00000KT CAVOK 05/M03 Q1021 NOSIG RMK BLU        

LHPA 181515Z 35004KT 8000 NSC 04/M01 Q1021 NOSIG RMK BLU        

LHPP 181515Z 06005KT 9999 SCT030 OVC083 02/M01 Q1021        

LHPR 181515Z 33003KT CAVOK 04/M01 Q1021 RMK BLU        

LHSM 181515Z 31002KT 9999 FEW040 OVC066 04/00 Q1021        

LHSN 181515Z 00000KT CAVOK 05/M04 Q1021 NOSIG RMK BLU        

LHUD 181515Z 03003KT 9999 OVC046 05/M02 Q1021